Lead Hill, AR

9:47 PM CST on February 28, 2015 (GMT -0600)
Blue Waters Resort | Change Station
CLOSE
Current Station
Personal Weather Station
Location: Protem, MO
Elevation: 760 ft
Nearby Weather Stations
Active Advisory: Winter Weather Advisory Active Notice: Record Report, Local Storm Report

Elev 760 ft 36.46 °N, 92.84 °W | Updated 3 minutes ago

Overcast
Overcast
28.0 °F
Feels Like 28 °F
N
0.0
Wind Variable Wind from NNE
Gusts 0.0 mph

Today
High -- | Low -- °F
--% Chance of Precip.
Yesterday
High -- | Low -- °F
Precip. -- in
6:43 AM 6:05 PM
Waxing Gibbous, 82% visible
Pressure 30.37 in
Visibility 2.5 miles
Clouds Overcast 300 ft
Windchill 28 °F
Dew Point 25 °F
Humidity 88%
Rainfall 0.00 in
Snow Depth Not available.
UV 0 out of 12
Pollen .60 out of 12
Air Quality Not available.
Flu Activity Not available.
SPECI KHRO 010315Z AUTO 13006KT 2 1/2SM -FZRA BR OVC003 M04/M04 A3037 RMK AO2 UPB09E12FZRAB12 P0000 T10391039

More Conditions Fewer Conditions

Pressure 30.37 in
Visibility 2.5 miles
Clouds Overcast 300 ft
Windchill 28 °F
Dew Point 25 °F
Humidity 88%
Rainfall 0.00 in
Snow Depth Not available.
UV 0 out of 12
Pollen .60 out of 12
Air Quality Not available.
Flu Activity Not available.
SPECI KHRO 010315Z AUTO 13006KT 2 1/2SM -FZRA BR OVC003 M04/M04 A3037 RMK AO2 UPB09E12FZRAB12 P0000 T10391039

More Conditions Fewer Conditions

10-Day Weather Forecast

Almanac

Astronomy

Feb. 28, 2015 Rise Set
Actual Time
Civil Twilight
Nautical Twilight
Astronomical Twilight
Moon
Length of Visible Light
Length of Day
Tomorrow will be .
, % of the Moon is Illuminated

Today's Extremes

State Highs State Lows

Community

WunderPhotos

Upload Photos

1,801,289 photos uploaded!

WunderBlogs® & News

Nearby

Air Quality

  Air Quality AQ Index Pollutant
Not available.

Snow Depth

Station Depth Elevation

Earthquake Activity

City Distance Mag. Time & Date
Minimum magnitude displayed is 2.5.

Coastal Water Temperatures

Place Temperature

Nearby Weather Stations

Winter Weather Advisory
Statement as of 7:54 PM CST on February 28, 2015

... Winter Weather Advisory remains in effect until 6 am CST
Sunday...

A Winter Weather Advisory remains in effect until 6 am CST
Sunday.

* Event: light freezing rain will continue overnight.

* Timing: freezing rain will continue overnight before
temperatures warm enough to change precipitation to rain Sunday
morning.

* Areas affected: much of western and northern Arkansas.

* Ice amounts: ice accumulations of a few hundredths of an inch
will be possible.

* Impacts: wintry precipitation will continue to cause travel
issues on area roadways.

Precautionary/preparedness actions...

A Winter Weather Advisory means that periods of snow... sleet... or
freezing rain will cause travel difficulties. Be prepared for
slippery roads and limited visibilities... and use caution while
driving.